Terminal Aerodrome Forecast
Issued by NWS Charleston, WV

Home | Current Version | Previous Version | Text Only | Print | Product List | Glossary On
Versions: 1 2 3 4 5 6 7 8 9 10 11 12 13 14 15 16 17 18 19 20 21 22 23 24 25 26 27 28
000
FTUS41 KRLX 221000 AAB
TAFBKW
TAF AMD
KBKW 221034Z 2211/2306 31004KT P6SM SCT020 OVC035
      TEMPO 2212/2213 BKN015
     FM221300 31004KT P6SM BKN012
     FM221700 33006KT P6SM BKN025
     FM222000 33007KT P6SM SCT035
     FM230000 VRB03KT P6SM FEW035=

USA.gov is the U.S. government's official web portal to all federal, state and local government web resources and services.